Athena, Oregon
Current Conditions -  °F | °C
As of 10:53 PM on Wednesday 22 Oct 2014 (Local Time) from KPDT Reporting Station
Overcast Overcast  
Wind Chill: 17°   Ceiling: 7500
Heat Index: 17°   Visibility: 10mi
Dew Point:   Wind: 13mph
Humidity: 48%   Direction: 200°SSW
Pressure: 29.74"   Gusts: NA
Location:  45.81°N, 118.49°W
Report Text: KPDT 230553Z AUTO 20011KT 10SM OVC075 17/06 A2974 RMK AO2 PK WND 19026/0541 SLP060 60002 T01720061 10200 20133 53002
Loading
Personal Weather Stations






























Interactive Weather Map
Tropical Storm Tracking
New forecast layout! Learn more

10-Day Weather Forecast

Advertisements
Track Severe Weather on mobile